Baton, North Carolina
Current Conditions -  °F | °C
As of 6:53 PM on Monday 20 Oct 2014 (Local Time) from KHKY Reporting Station
NA  
Wind Chill: 63°   Ceiling: NA
Heat Index: 63°   Visibility: 10mi
Dew Point: 49°   Wind: 6mph
Humidity: 60%   Direction: 190°S
Pressure: 29.98"   Gusts: NA
Location:  35.83°N, 81.4147°W
Report Text: KHKY 202253Z AUTO 19005KT 10SM 17/09 A2998 RMK AO2 SLP139 T01720094 $
Loading
Personal Weather Stations






























Interactive Weather Map
Tropical Storm Tracking
New forecast layout! Learn more

10-Day Weather Forecast

Advertisements
Track Severe Weather on mobile